sensor_id;sensor_type;location;lat;lon;timestamp;P1;durP1;ratioP1;P2;durP2;ratioP2
9438;SDS011;5176;42.622;25.386;2024-03-08T00:00:48;17.93;;;12.80;;
9438;SDS011;5176;42.622;25.386;2024-03-08T00:03:16;18.17;;;11.67;;
9438;SDS011;5176;42.622;25.386;2024-03-08T00:05:44;17.77;;;11.97;;
9438;SDS011;5176;42.622;25.386;2024-03-08T00:08:11;16.67;;;12.30;;
9438;SDS011;5176;42.622;25.386;2024-03-08T00:10:39;17.33;;;12.40;;
9438;SDS011;5176;42.622;25.386;2024-03-08T00:13:06;15.37;;;11.47;;
9438;SDS011;5176;42.622;25.386;2024-03-08T00:15:33;15.30;;;10.93;;
9438;SDS011;5176;42.622;25.386;2024-03-08T00:18:02;16.13;;;11.57;;
9438;SDS011;5176;42.622;25.386;2024-03-08T00:20:30;15.60;;;11.33;;
9438;SDS011;5176;42.622;25.386;2024-03-08T00:22:57;15.30;;;10.53;;
9438;SDS011;5176;42.622;25.386;2024-03-08T00:25:25;13.27;;;10.03;;
9438;SDS011;5176;42.622;25.386;2024-03-08T00:27:53;14.67;;;10.53;;
9438;SDS011;5176;42.622;25.386;2024-03-08T00:30:21;15.63;;;10.70;;
9438;SDS011;5176;42.622;25.386;2024-03-08T00:32:50;15.93;;;11.77;;
9438;SDS011;5176;42.622;25.386;2024-03-08T00:35:19;17.87;;;12.80;;
9438;SDS011;5176;42.622;25.386;2024-03-08T00:37:48;19.00;;;13.07;;
9438;SDS011;5176;42.622;25.386;2024-03-08T00:40:14;21.73;;;14.10;;
9438;SDS011;5176;42.622;25.386;2024-03-08T00:42:41;21.13;;;14.03;;
9438;SDS011;5176;42.622;25.386;2024-03-08T00:45:09;21.80;;;14.43;;
9438;SDS011;5176;42.622;25.386;2024-03-08T00:47:37;20.47;;;14.23;;
9438;SDS011;5176;42.622;25.386;2024-03-08T00:50:05;20.33;;;14.27;;
9438;SDS011;5176;42.622;25.386;2024-03-08T00:52:35;21.80;;;15.53;;
9438;SDS011;5176;42.622;25.386;2024-03-08T00:55:02;28.47;;;16.63;;
9438;SDS011;5176;42.622;25.386;2024-03-08T00:57:30;23.87;;;15.93;;
9438;SDS011;5176;42.622;25.386;2024-03-08T00:59:58;24.97;;;15.43;;
9438;SDS011;5176;42.622;25.386;2024-03-08T01:02:25;25.10;;;15.47;;
9438;SDS011;5176;42.622;25.386;2024-03-08T01:04:52;21.70;;;16.27;;
9438;SDS011;5176;42.622;25.386;2024-03-08T01:07:20;26.63;;;15.63;;
9438;SDS011;5176;42.622;25.386;2024-03-08T01:09:49;22.13;;;15.47;;
9438;SDS011;5176;42.622;25.386;2024-03-08T01:12:16;22.20;;;15.23;;
9438;SDS011;5176;42.622;25.386;2024-03-08T01:14:43;23.73;;;13.70;;
9438;SDS011;5176;42.622;25.386;2024-03-08T01:17:10;21.27;;;13.93;;
9438;SDS011;5176;42.622;25.386;2024-03-08T01:19:38;18.10;;;12.93;;
9438;SDS011;5176;42.622;25.386;2024-03-08T01:22:05;18.47;;;12.87;;
9438;SDS011;5176;42.622;25.386;2024-03-08T01:24:33;18.40;;;12.40;;
9438;SDS011;5176;42.622;25.386;2024-03-08T01:27:02;17.43;;;11.57;;
9438;SDS011;5176;42.622;25.386;2024-03-08T01:29:29;19.67;;;12.97;;
9438;SDS011;5176;42.622;25.386;2024-03-08T01:31:57;16.83;;;11.47;;
9438;SDS011;5176;42.622;25.386;2024-03-08T01:34:27;14.60;;;11.40;;
9438;SDS011;5176;42.622;25.386;2024-03-08T01:36:55;15.27;;;10.13;;
9438;SDS011;5176;42.622;25.386;2024-03-08T01:39:22;15.93;;;10.77;;
9438;SDS011;5176;42.622;25.386;2024-03-08T01:41:50;16.50;;;11.57;;
9438;SDS011;5176;42.622;25.386;2024-03-08T01:44:18;17.07;;;11.60;;
9438;SDS011;5176;42.622;25.386;2024-03-08T01:46:46;17.33;;;12.80;;
9438;SDS011;5176;42.622;25.386;2024-03-08T01:49:14;15.27;;;11.40;;
9438;SDS011;5176;42.622;25.386;2024-03-08T01:51:43;15.93;;;11.27;;
9438;SDS011;5176;42.622;25.386;2024-03-08T01:54:11;17.30;;;11.97;;
9438;SDS011;5176;42.622;25.386;2024-03-08T01:56:39;17.70;;;11.83;;
9438;SDS011;5176;42.622;25.386;2024-03-08T01:59:07;14.67;;;10.67;;
9438;SDS011;5176;42.622;25.386;2024-03-08T02:01:36;17.63;;;12.10;;
9438;SDS011;5176;42.622;25.386;2024-03-08T02:04:04;17.93;;;12.77;;
9438;SDS011;5176;42.622;25.386;2024-03-08T02:06:32;21.70;;;14.77;;
9438;SDS011;5176;42.622;25.386;2024-03-08T02:09:00;22.93;;;13.87;;
9438;SDS011;5176;42.622;25.386;2024-03-08T02:11:31;21.93;;;15.00;;
9438;SDS011;5176;42.622;25.386;2024-03-08T02:13:59;19.80;;;12.90;;
9438;SDS011;5176;42.622;25.386;2024-03-08T02:16:26;19.50;;;13.17;;
9438;SDS011;5176;42.622;25.386;2024-03-08T02:18:55;21.43;;;14.30;;
9438;SDS011;5176;42.622;25.386;2024-03-08T02:21:24;22.87;;;14.83;;
9438;SDS011;5176;42.622;25.386;2024-03-08T02:23:52;25.23;;;15.47;;
9438;SDS011;5176;42.622;25.386;2024-03-08T02:26:20;24.53;;;16.67;;
9438;SDS011;5176;42.622;25.386;2024-03-08T02:28:48;26.53;;;17.80;;
9438;SDS011;5176;42.622;25.386;2024-03-08T02:31:16;29.97;;;18.50;;
9438;SDS011;5176;42.622;25.386;2024-03-08T02:33:43;28.43;;;16.83;;
9438;SDS011;5176;42.622;25.386;2024-03-08T02:36:12;27.90;;;16.77;;
9438;SDS011;5176;42.622;25.386;2024-03-08T02:38:43;28.07;;;17.37;;
9438;SDS011;5176;42.622;25.386;2024-03-08T02:41:10;28.47;;;18.33;;
9438;SDS011;5176;42.622;25.386;2024-03-08T02:43:37;28.30;;;16.13;;
9438;SDS011;5176;42.622;25.386;2024-03-08T02:46:05;27.43;;;16.50;;
9438;SDS011;5176;42.622;25.386;2024-03-08T02:48:32;27.33;;;17.20;;
9438;SDS011;5176;42.622;25.386;2024-03-08T02:50:59;30.33;;;18.73;;
9438;SDS011;5176;42.622;25.386;2024-03-08T02:53:27;30.13;;;17.57;;
9438;SDS011;5176;42.622;25.386;2024-03-08T02:55:56;28.70;;;16.80;;
9438;SDS011;5176;42.622;25.386;2024-03-08T02:58:23;28.00;;;16.20;;
9438;SDS011;5176;42.622;25.386;2024-03-08T03:00:50;26.47;;;15.87;;
9438;SDS011;5176;42.622;25.386;2024-03-08T03:03:18;27.47;;;16.83;;
9438;SDS011;5176;42.622;25.386;2024-03-08T03:05:45;28.33;;;16.87;;
9438;SDS011;5176;42.622;25.386;2024-03-08T03:08:12;23.70;;;16.27;;
9438;SDS011;5176;42.622;25.386;2024-03-08T03:10:41;25.00;;;17.03;;
9438;SDS011;5176;42.622;25.386;2024-03-08T03:13:09;25.23;;;16.13;;
9438;SDS011;5176;42.622;25.386;2024-03-08T03:15:37;28.97;;;17.73;;
9438;SDS011;5176;42.622;25.386;2024-03-08T03:18:07;26.67;;;16.97;;
9438;SDS011;5176;42.622;25.386;2024-03-08T03:20:35;26.37;;;16.50;;
9438;SDS011;5176;42.622;25.386;2024-03-08T03:23:05;24.30;;;15.43;;
9438;SDS011;5176;42.622;25.386;2024-03-08T03:25:34;26.30;;;15.60;;
9438;SDS011;5176;42.622;25.386;2024-03-08T03:28:01;27.83;;;16.67;;
9438;SDS011;5176;42.622;25.386;2024-03-08T03:30:31;26.80;;;16.80;;
9438;SDS011;5176;42.622;25.386;2024-03-08T03:32:59;25.27;;;15.57;;
9438;SDS011;5176;42.622;25.386;2024-03-08T03:35:27;26.17;;;15.37;;
9438;SDS011;5176;42.622;25.386;2024-03-08T03:37:55;30.50;;;17.10;;
9438;SDS011;5176;42.622;25.386;2024-03-08T03:40:32;24.03;;;15.27;;
9438;SDS011;5176;42.622;25.386;2024-03-08T03:42:59;25.67;;;15.57;;
9438;SDS011;5176;42.622;25.386;2024-03-08T03:45:28;24.83;;;15.70;;
9438;SDS011;5176;42.622;25.386;2024-03-08T03:48:00;24.67;;;14.53;;
9438;SDS011;5176;42.622;25.386;2024-03-08T03:50:28;28.00;;;15.73;;
9438;SDS011;5176;42.622;25.386;2024-03-08T03:52:56;24.40;;;14.80;;
9438;SDS011;5176;42.622;25.386;2024-03-08T03:55:23;24.93;;;15.07;;
9438;SDS011;5176;42.622;25.386;2024-03-08T03:57:51;25.77;;;14.77;;
9438;SDS011;5176;42.622;25.386;2024-03-08T04:00:18;28.47;;;15.23;;
9438;SDS011;5176;42.622;25.386;2024-03-08T04:02:46;22.10;;;14.17;;
9438;SDS011;5176;42.622;25.386;2024-03-08T04:05:15;21.33;;;14.83;;
9438;SDS011;5176;42.622;25.386;2024-03-08T04:07:43;25.37;;;14.67;;
9438;SDS011;5176;42.622;25.386;2024-03-08T04:10:11;23.60;;;14.30;;
9438;SDS011;5176;42.622;25.386;2024-03-08T04:12:38;23.53;;;13.70;;
9438;SDS011;5176;42.622;25.386;2024-03-08T04:15:06;21.67;;;14.93;;
9438;SDS011;5176;42.622;25.386;2024-03-08T04:17:36;24.07;;;15.30;;
9438;SDS011;5176;42.622;25.386;2024-03-08T04:20:04;23.73;;;14.40;;
9438;SDS011;5176;42.622;25.386;2024-03-08T04:22:37;24.20;;;15.97;;
9438;SDS011;5176;42.622;25.386;2024-03-08T04:25:05;25.30;;;14.90;;
9438;SDS011;5176;42.622;25.386;2024-03-08T04:27:35;26.43;;;15.50;;
9438;SDS011;5176;42.622;25.386;2024-03-08T04:30:03;21.83;;;15.13;;
9438;SDS011;5176;42.622;25.386;2024-03-08T04:32:32;23.67;;;14.63;;
9438;SDS011;5176;42.622;25.386;2024-03-08T04:35:00;22.97;;;15.87;;
9438;SDS011;5176;42.622;25.386;2024-03-08T04:37:28;28.00;;;16.23;;
9438;SDS011;5176;42.622;25.386;2024-03-08T04:39:57;26.27;;;18.60;;
9438;SDS011;5176;42.622;25.386;2024-03-08T04:42:25;25.87;;;15.73;;
9438;SDS011;5176;42.622;25.386;2024-03-08T04:44:54;25.57;;;15.50;;
9438;SDS011;5176;42.622;25.386;2024-03-08T04:47:21;24.17;;;15.20;;
9438;SDS011;5176;42.622;25.386;2024-03-08T04:49:49;26.07;;;17.57;;
9438;SDS011;5176;42.622;25.386;2024-03-08T04:52:16;27.50;;;16.47;;
9438;SDS011;5176;42.622;25.386;2024-03-08T04:54:44;28.80;;;17.03;;
9438;SDS011;5176;42.622;25.386;2024-03-08T04:57:13;27.37;;;16.27;;
9438;SDS011;5176;42.622;25.386;2024-03-08T04:59:43;27.73;;;16.50;;
9438;SDS011;5176;42.622;25.386;2024-03-08T05:02:10;24.73;;;16.73;;
9438;SDS011;5176;42.622;25.386;2024-03-08T05:04:38;23.97;;;15.80;;
9438;SDS011;5176;42.622;25.386;2024-03-08T05:07:05;26.97;;;16.13;;
9438;SDS011;5176;42.622;25.386;2024-03-08T05:09:33;22.70;;;15.17;;
9438;SDS011;5176;42.622;25.386;2024-03-08T05:12:01;23.67;;;15.67;;
9438;SDS011;5176;42.622;25.386;2024-03-08T05:14:30;29.13;;;19.07;;
9438;SDS011;5176;42.622;25.386;2024-03-08T05:16:57;34.53;;;21.30;;
9438;SDS011;5176;42.622;25.386;2024-03-08T05:19:26;28.23;;;18.23;;
9438;SDS011;5176;42.622;25.386;2024-03-08T05:21:55;27.43;;;17.30;;
9438;SDS011;5176;42.622;25.386;2024-03-08T05:24:22;23.17;;;15.53;;
9438;SDS011;5176;42.622;25.386;2024-03-08T05:26:50;24.77;;;16.03;;
9438;SDS011;5176;42.622;25.386;2024-03-08T05:29:17;23.43;;;15.10;;
9438;SDS011;5176;42.622;25.386;2024-03-08T05:31:47;33.93;;;21.13;;
9438;SDS011;5176;42.622;25.386;2024-03-08T05:34:16;32.30;;;20.47;;
9438;SDS011;5176;42.622;25.386;2024-03-08T05:36:44;34.87;;;24.03;;
9438;SDS011;5176;42.622;25.386;2024-03-08T05:39:12;59.83;;;53.00;;
9438;SDS011;5176;42.622;25.386;2024-03-08T05:41:40;25.67;;;17.73;;
9438;SDS011;5176;42.622;25.386;2024-03-08T05:44:08;24.43;;;16.60;;
9438;SDS011;5176;42.622;25.386;2024-03-08T05:46:36;25.53;;;16.23;;
9438;SDS011;5176;42.622;25.386;2024-03-08T05:49:05;23.17;;;16.07;;
9438;SDS011;5176;42.622;25.386;2024-03-08T05:51:35;26.27;;;16.50;;
9438;SDS011;5176;42.622;25.386;2024-03-08T05:54:05;21.87;;;14.80;;
9438;SDS011;5176;42.622;25.386;2024-03-08T05:56:35;29.40;;;18.33;;
9438;SDS011;5176;42.622;25.386;2024-03-08T05:59:03;29.73;;;17.83;;
9438;SDS011;5176;42.622;25.386;2024-03-08T06:01:31;26.50;;;17.83;;
9438;SDS011;5176;42.622;25.386;2024-03-08T06:04:01;27.90;;;18.67;;
9438;SDS011;5176;42.622;25.386;2024-03-08T06:06:31;31.37;;;20.13;;
9438;SDS011;5176;42.622;25.386;2024-03-08T06:08:59;26.40;;;17.53;;
9438;SDS011;5176;42.622;25.386;2024-03-08T06:11:33;23.93;;;16.13;;
9438;SDS011;5176;42.622;25.386;2024-03-08T06:14:01;27.90;;;17.80;;
9438;SDS011;5176;42.622;25.386;2024-03-08T06:16:28;34.03;;;23.70;;
9438;SDS011;5176;42.622;25.386;2024-03-08T06:18:56;28.07;;;18.70;;
9438;SDS011;5176;42.622;25.386;2024-03-08T06:21:23;23.87;;;16.83;;
9438;SDS011;5176;42.622;25.386;2024-03-08T06:23:52;32.23;;;19.80;;
9438;SDS011;5176;42.622;25.386;2024-03-08T06:26:22;32.73;;;20.77;;
9438;SDS011;5176;42.622;25.386;2024-03-08T06:28:53;30.87;;;18.53;;
9438;SDS011;5176;42.622;25.386;2024-03-08T06:31:21;26.27;;;17.33;;
9438;SDS011;5176;42.622;25.386;2024-03-08T06:33:48;22.87;;;16.60;;
9438;SDS011;5176;42.622;25.386;2024-03-08T06:36:16;25.57;;;16.47;;
9438;SDS011;5176;42.622;25.386;2024-03-08T06:38:44;23.53;;;16.27;;
9438;SDS011;5176;42.622;25.386;2024-03-08T06:41:14;26.03;;;17.27;;
9438;SDS011;5176;42.622;25.386;2024-03-08T06:43:41;25.27;;;16.67;;
9438;SDS011;5176;42.622;25.386;2024-03-08T06:46:09;24.33;;;16.10;;
9438;SDS011;5176;42.622;25.386;2024-03-08T06:48:38;26.47;;;16.47;;
9438;SDS011;5176;42.622;25.386;2024-03-08T06:51:05;36.77;;;22.63;;
9438;SDS011;5176;42.622;25.386;2024-03-08T06:53:33;31.80;;;20.63;;
9438;SDS011;5176;42.622;25.386;2024-03-08T06:56:01;30.73;;;17.27;;
9438;SDS011;5176;42.622;25.386;2024-03-08T06:58:29;28.40;;;18.40;;
9438;SDS011;5176;42.622;25.386;2024-03-08T07:00:57;27.23;;;17.97;;
9438;SDS011;5176;42.622;25.386;2024-03-08T07:03:26;36.77;;;21.63;;
9438;SDS011;5176;42.622;25.386;2024-03-08T07:05:55;42.07;;;25.33;;
9438;SDS011;5176;42.622;25.386;2024-03-08T07:08:23;34.17;;;22.83;;
9438;SDS011;5176;42.622;25.386;2024-03-08T07:10:52;26.27;;;16.77;;
9438;SDS011;5176;42.622;25.386;2024-03-08T07:13:19;24.83;;;16.83;;
9438;SDS011;5176;42.622;25.386;2024-03-08T07:15:48;26.70;;;19.17;;
9438;SDS011;5176;42.622;25.386;2024-03-08T07:18:17;33.30;;;22.47;;
9438;SDS011;5176;42.622;25.386;2024-03-08T07:20:45;27.53;;;19.17;;
9438;SDS011;5176;42.622;25.386;2024-03-08T07:23:12;28.97;;;18.77;;
9438;SDS011;5176;42.622;25.386;2024-03-08T07:26:00;30.03;;;20.33;;
9438;SDS011;5176;42.622;25.386;2024-03-08T07:28:27;31.40;;;19.20;;
9438;SDS011;5176;42.622;25.386;2024-03-08T07:30:57;29.43;;;19.43;;
9438;SDS011;5176;42.622;25.386;2024-03-08T07:33:42;35.77;;;19.63;;
9438;SDS011;5176;42.622;25.386;2024-03-08T07:36:09;38.30;;;24.30;;
9438;SDS011;5176;42.622;25.386;2024-03-08T07:38:37;30.63;;;21.23;;
9438;SDS011;5176;42.622;25.386;2024-03-08T07:41:04;26.33;;;17.80;;
9438;SDS011;5176;42.622;25.386;2024-03-08T07:43:31;28.07;;;17.83;;
9438;SDS011;5176;42.622;25.386;2024-03-08T07:46:00;33.30;;;19.70;;
9438;SDS011;5176;42.622;25.386;2024-03-08T07:48:28;36.23;;;18.00;;
9438;SDS011;5176;42.622;25.386;2024-03-08T07:50:55;32.87;;;17.37;;
9438;SDS011;5176;42.622;25.386;2024-03-08T07:53:23;38.47;;;17.10;;
9438;SDS011;5176;42.622;25.386;2024-03-08T07:55:50;40.67;;;20.17;;
9438;SDS011;5176;42.622;25.386;2024-03-08T07:58:18;39.47;;;19.47;;
9438;SDS011;5176;42.622;25.386;2024-03-08T08:00:45;41.43;;;19.73;;
9438;SDS011;5176;42.622;25.386;2024-03-08T08:03:14;37.83;;;18.77;;
9438;SDS011;5176;42.622;25.386;2024-03-08T08:05:41;31.20;;;20.80;;
9438;SDS011;5176;42.622;25.386;2024-03-08T08:08:09;27.27;;;17.33;;
9438;SDS011;5176;42.622;25.386;2024-03-08T08:10:36;26.23;;;16.57;;
9438;SDS011;5176;42.622;25.386;2024-03-08T08:13:04;26.70;;;16.73;;
9438;SDS011;5176;42.622;25.386;2024-03-08T08:15:31;24.70;;;17.00;;
9438;SDS011;5176;42.622;25.386;2024-03-08T08:17:59;21.80;;;15.87;;
9438;SDS011;5176;42.622;25.386;2024-03-08T08:20:29;25.33;;;15.97;;
9438;SDS011;5176;42.622;25.386;2024-03-08T08:34:58;21.17;;;16.67;;
9438;SDS011;5176;42.622;25.386;2024-03-08T08:37:26;20.33;;;14.87;;
9438;SDS011;5176;42.622;25.386;2024-03-08T08:39:54;20.53;;;14.03;;
9438;SDS011;5176;42.622;25.386;2024-03-08T08:42:21;8.63;;;6.43;;
9438;SDS011;5176;42.622;25.386;2024-03-08T08:44:49;6.77;;;5.13;;
9438;SDS011;5176;42.622;25.386;2024-03-08T08:47:18;6.73;;;5.77;;
9438;SDS011;5176;42.622;25.386;2024-03-08T08:49:45;9.23;;;6.83;;
9438;SDS011;5176;42.622;25.386;2024-03-08T08:52:17;12.13;;;7.90;;
9438;SDS011;5176;42.622;25.386;2024-03-08T08:54:45;11.73;;;8.10;;
9438;SDS011;5176;42.622;25.386;2024-03-08T08:57:12;9.73;;;6.90;;
9438;SDS011;5176;42.622;25.386;2024-03-08T08:59:39;5.97;;;5.10;;
9438;SDS011;5176;42.622;25.386;2024-03-08T09:02:07;5.60;;;4.27;;
9438;SDS011;5176;42.622;25.386;2024-03-08T09:04:34;4.80;;;4.30;;
9438;SDS011;5176;42.622;25.386;2024-03-08T09:07:01;5.63;;;4.80;;
9438;SDS011;5176;42.622;25.386;2024-03-08T09:09:33;4.90;;;4.27;;
9438;SDS011;5176;42.622;25.386;2024-03-08T09:12:00;5.77;;;4.13;;
9438;SDS011;5176;42.622;25.386;2024-03-08T09:14:27;5.33;;;4.60;;
9438;SDS011;5176;42.622;25.386;2024-03-08T09:16:55;5.53;;;4.47;;
9438;SDS011;5176;42.622;25.386;2024-03-08T09:19:22;5.27;;;4.60;;
9438;SDS011;5176;42.622;25.386;2024-03-08T09:21:51;5.00;;;4.50;;
9438;SDS011;5176;42.622;25.386;2024-03-08T09:24:18;3.83;;;3.47;;
9438;SDS011;5176;42.622;25.386;2024-03-08T09:26:47;6.63;;;4.33;;
9438;SDS011;5176;42.622;25.386;2024-03-08T09:29:14;5.53;;;4.10;;
9438;SDS011;5176;42.622;25.386;2024-03-08T09:31:42;5.43;;;4.50;;
9438;SDS011;5176;42.622;25.386;2024-03-08T09:34:11;6.63;;;4.97;;
9438;SDS011;5176;42.622;25.386;2024-03-08T09:36:39;5.43;;;4.00;;
9438;SDS011;5176;42.622;25.386;2024-03-08T09:39:06;6.97;;;5.10;;
9438;SDS011;5176;42.622;25.386;2024-03-08T09:41:34;7.50;;;6.13;;
9438;SDS011;5176;42.622;25.386;2024-03-08T09:44:03;8.27;;;5.87;;
9438;SDS011;5176;42.622;25.386;2024-03-08T09:46:30;7.50;;;5.70;;
9438;SDS011;5176;42.622;25.386;2024-03-08T09:48:58;7.03;;;5.87;;
9438;SDS011;5176;42.622;25.386;2024-03-08T09:51:27;5.43;;;4.93;;
9438;SDS011;5176;42.622;25.386;2024-03-08T09:53:56;4.70;;;4.13;;
9438;SDS011;5176;42.622;25.386;2024-03-08T09:56:24;6.40;;;5.57;;
9438;SDS011;5176;42.622;25.386;2024-03-08T09:58:53;5.00;;;4.40;;
9438;SDS011;5176;42.622;25.386;2024-03-08T10:01:41;5.40;;;3.93;;
9438;SDS011;5176;42.622;25.386;2024-03-08T10:04:07;9.17;;;5.70;;
9438;SDS011;5176;42.622;25.386;2024-03-08T10:06:35;4.50;;;4.10;;
9438;SDS011;5176;42.622;25.386;2024-03-08T10:09:03;3.20;;;2.87;;
9438;SDS011;5176;42.622;25.386;2024-03-08T10:11:31;3.83;;;3.43;;
9438;SDS011;5176;42.622;25.386;2024-03-08T10:13:58;3.50;;;3.20;;
9438;SDS011;5176;42.622;25.386;2024-03-08T10:16:27;3.20;;;2.60;;
9438;SDS011;5176;42.622;25.386;2024-03-08T10:18:57;3.13;;;2.90;;
9438;SDS011;5176;42.622;25.386;2024-03-08T10:21:25;3.37;;;3.07;;
9438;SDS011;5176;42.622;25.386;2024-03-08T10:23:53;3.40;;;3.10;;
9438;SDS011;5176;42.622;25.386;2024-03-08T10:26:22;3.77;;;3.30;;
9438;SDS011;5176;42.622;25.386;2024-03-08T10:28:50;4.70;;;4.23;;
9438;SDS011;5176;42.622;25.386;2024-03-08T10:31:19;3.77;;;3.47;;
9438;SDS011;5176;42.622;25.386;2024-03-08T10:33:46;3.50;;;3.20;;
9438;SDS011;5176;42.622;25.386;2024-03-08T10:36:16;3.37;;;3.07;;
9438;SDS011;5176;42.622;25.386;2024-03-08T10:38:44;4.00;;;3.70;;
9438;SDS011;5176;42.622;25.386;2024-03-08T10:41:13;3.37;;;3.07;;
9438;SDS011;5176;42.622;25.386;2024-03-08T10:44:03;3.30;;;3.00;;
9438;SDS011;5176;42.622;25.386;2024-03-08T10:46:42;3.20;;;2.97;;
9438;SDS011;5176;42.622;25.386;2024-03-08T10:49:21;3.00;;;2.80;;
9438;SDS011;5176;42.622;25.386;2024-03-08T10:51:54;2.80;;;2.60;;
9438;SDS011;5176;42.622;25.386;2024-03-08T10:54:22;3.20;;;2.80;;
9438;SDS011;5176;42.622;25.386;2024-03-08T10:56:53;2.70;;;2.50;;
9438;SDS011;5176;42.622;25.386;2024-03-08T10:59:21;5.60;;;3.60;;
9438;SDS011;5176;42.622;25.386;2024-03-08T11:01:52;6.10;;;4.70;;
9438;SDS011;5176;42.622;25.386;2024-03-08T11:04:20;5.70;;;4.53;;
9438;SDS011;5176;42.622;25.386;2024-03-08T11:06:49;18.50;;;10.13;;
9438;SDS011;5176;42.622;25.386;2024-03-08T11:09:29;20.53;;;10.80;;
9438;SDS011;5176;42.622;25.386;2024-03-08T11:14:48;25.10;;;14.47;;
9438;SDS011;5176;42.622;25.386;2024-03-08T11:17:16;13.00;;;7.30;;
9438;SDS011;5176;42.622;25.386;2024-03-08T11:19:48;9.30;;;6.93;;
9438;SDS011;5176;42.622;25.386;2024-03-08T11:22:20;9.83;;;5.33;;
9438;SDS011;5176;42.622;25.386;2024-03-08T11:24:54;5.90;;;4.40;;
9438;SDS011;5176;42.622;25.386;2024-03-08T11:27:28;11.07;;;7.37;;
9438;SDS011;5176;42.622;25.386;2024-03-08T11:30:00;12.50;;;9.50;;
9438;SDS011;5176;42.622;25.386;2024-03-08T11:32:35;6.07;;;4.60;;
9438;SDS011;5176;42.622;25.386;2024-03-08T11:35:05;9.03;;;6.83;;
9438;SDS011;5176;42.622;25.386;2024-03-08T11:37:34;4.30;;;3.90;;
9438;SDS011;5176;42.622;25.386;2024-03-08T11:40:11;5.37;;;4.40;;
9438;SDS011;5176;42.622;25.386;2024-03-08T11:42:43;3.77;;;3.37;;
9438;SDS011;5176;42.622;25.386;2024-03-08T11:45:13;3.47;;;3.13;;
9438;SDS011;5176;42.622;25.386;2024-03-08T11:47:42;7.03;;;5.63;;
9438;SDS011;5176;42.622;25.386;2024-03-08T11:50:11;3.60;;;3.23;;
9438;SDS011;5176;42.622;25.386;2024-03-08T11:52:39;13.33;;;7.90;;
9438;SDS011;5176;42.622;25.386;2024-03-08T11:55:09;16.10;;;9.20;;
9438;SDS011;5176;42.622;25.386;2024-03-08T11:57:39;4.67;;;3.60;;
9438;SDS011;5176;42.622;25.386;2024-03-08T12:00:14;3.40;;;3.10;;
9438;SDS011;5176;42.622;25.386;2024-03-08T12:03:00;5.37;;;4.43;;
9438;SDS011;5176;42.622;25.386;2024-03-08T12:05:28;5.10;;;4.03;;
9438;SDS011;5176;42.622;25.386;2024-03-08T12:07:58;6.57;;;4.63;;
9438;SDS011;5176;42.622;25.386;2024-03-08T12:10:28;4.80;;;4.30;;
9438;SDS011;5176;42.622;25.386;2024-03-08T12:12:57;5.43;;;4.27;;
9438;SDS011;5176;42.622;25.386;2024-03-08T12:15:29;4.27;;;3.83;;
9438;SDS011;5176;42.622;25.386;2024-03-08T12:18:00;4.37;;;3.93;;
9438;SDS011;5176;42.622;25.386;2024-03-08T12:20:30;4.80;;;4.27;;
9438;SDS011;5176;42.622;25.386;2024-03-08T12:22:57;9.43;;;5.50;;
9438;SDS011;5176;42.622;25.386;2024-03-08T12:25:31;10.40;;;6.50;;
9438;SDS011;5176;42.622;25.386;2024-03-08T12:28:07;7.67;;;4.83;;
9438;SDS011;5176;42.622;25.386;2024-03-08T12:30:43;8.37;;;5.27;;
9438;SDS011;5176;42.622;25.386;2024-03-08T12:33:13;5.37;;;4.30;;
9438;SDS011;5176;42.622;25.386;2024-03-08T12:35:49;5.87;;;4.53;;
9438;SDS011;5176;42.622;25.386;2024-03-08T12:38:20;6.33;;;4.87;;
9438;SDS011;5176;42.622;25.386;2024-03-08T12:40:54;6.87;;;5.03;;
9438;SDS011;5176;42.622;25.386;2024-03-08T12:43:23;4.97;;;4.47;;
9438;SDS011;5176;42.622;25.386;2024-03-08T12:45:51;4.20;;;3.80;;
9438;SDS011;5176;42.622;25.386;2024-03-08T12:48:20;3.67;;;3.37;;
9438;SDS011;5176;42.622;25.386;2024-03-08T12:50:47;4.20;;;3.80;;
9438;SDS011;5176;42.622;25.386;2024-03-08T12:53:17;5.70;;;4.70;;
9438;SDS011;5176;42.622;25.386;2024-03-08T12:55:44;4.93;;;4.03;;
9438;SDS011;5176;42.622;25.386;2024-03-08T12:58:13;3.60;;;3.30;;
9438;SDS011;5176;42.622;25.386;2024-03-08T13:00:42;4.47;;;4.07;;
9438;SDS011;5176;42.622;25.386;2024-03-08T13:03:09;4.53;;;3.50;;
9438;SDS011;5176;42.622;25.386;2024-03-08T13:05:36;4.20;;;3.80;;
9438;SDS011;5176;42.622;25.386;2024-03-08T13:08:05;4.63;;;4.13;;
9438;SDS011;5176;42.622;25.386;2024-03-08T13:10:37;10.50;;;6.67;;
9438;SDS011;5176;42.622;25.386;2024-03-08T13:13:05;6.93;;;4.77;;
9438;SDS011;5176;42.622;25.386;2024-03-08T13:15:36;6.37;;;4.57;;
9438;SDS011;5176;42.622;25.386;2024-03-08T13:18:04;6.47;;;4.50;;
9438;SDS011;5176;42.622;25.386;2024-03-08T13:20:34;8.03;;;5.67;;
9438;SDS011;5176;42.622;25.386;2024-03-08T13:23:02;5.70;;;4.77;;
9438;SDS011;5176;42.622;25.386;2024-03-08T13:25:30;5.83;;;4.90;;
9438;SDS011;5176;42.622;25.386;2024-03-08T13:27:58;8.40;;;5.77;;
9438;SDS011;5176;42.622;25.386;2024-03-08T13:30:26;4.63;;;3.80;;
9438;SDS011;5176;42.622;25.386;2024-03-08T13:32:55;6.93;;;3.50;;
9438;SDS011;5176;42.622;25.386;2024-03-08T13:35:22;12.30;;;6.93;;
9438;SDS011;5176;42.622;25.386;2024-03-08T13:37:52;13.23;;;8.37;;
9438;SDS011;5176;42.622;25.386;2024-03-08T13:40:20;13.00;;;7.20;;
9438;SDS011;5176;42.622;25.386;2024-03-08T13:42:47;8.60;;;6.20;;
9438;SDS011;5176;42.622;25.386;2024-03-08T13:45:15;8.90;;;6.53;;
9438;SDS011;5176;42.622;25.386;2024-03-08T13:47:48;5.23;;;4.60;;
9438;SDS011;5176;42.622;25.386;2024-03-08T13:50:18;3.63;;;3.33;;
9438;SDS011;5176;42.622;25.386;2024-03-08T13:52:46;5.90;;;4.23;;
9438;SDS011;5176;42.622;25.386;2024-03-08T13:55:16;6.00;;;5.13;;
9438;SDS011;5176;42.622;25.386;2024-03-08T13:57:44;8.27;;;6.40;;
9438;SDS011;5176;42.622;25.386;2024-03-08T14:00:12;8.83;;;6.33;;
9438;SDS011;5176;42.622;25.386;2024-03-08T14:02:40;7.80;;;5.83;;
9438;SDS011;5176;42.622;25.386;2024-03-08T14:05:08;6.37;;;5.50;;
9438;SDS011;5176;42.622;25.386;2024-03-08T14:07:38;7.30;;;5.20;;
9438;SDS011;5176;42.622;25.386;2024-03-08T14:10:06;4.77;;;4.30;;
9438;SDS011;5176;42.622;25.386;2024-03-08T14:12:35;9.03;;;6.03;;
9438;SDS011;5176;42.622;25.386;2024-03-08T14:15:04;11.40;;;7.50;;
9438;SDS011;5176;42.622;25.386;2024-03-08T14:17:32;18.80;;;9.53;;
9438;SDS011;5176;42.622;25.386;2024-03-08T14:19:59;16.23;;;8.07;;
9438;SDS011;5176;42.622;25.386;2024-03-08T14:22:27;15.13;;;8.63;;
9438;SDS011;5176;42.622;25.386;2024-03-08T14:24:58;17.03;;;8.87;;
9438;SDS011;5176;42.622;25.386;2024-03-08T14:27:25;11.90;;;7.87;;
9438;SDS011;5176;42.622;25.386;2024-03-08T14:29:54;6.93;;;5.33;;
9438;SDS011;5176;42.622;25.386;2024-03-08T14:32:21;8.93;;;6.77;;
9438;SDS011;5176;42.622;25.386;2024-03-08T14:34:49;10.53;;;5.87;;
9438;SDS011;5176;42.622;25.386;2024-03-08T14:37:16;4.83;;;4.13;;
9438;SDS011;5176;42.622;25.386;2024-03-08T14:39:48;5.13;;;4.63;;
9438;SDS011;5176;42.622;25.386;2024-03-08T14:42:19;4.57;;;4.13;;
9438;SDS011;5176;42.622;25.386;2024-03-08T14:44:47;4.53;;;4.10;;
9438;SDS011;5176;42.622;25.386;2024-03-08T14:47:16;5.63;;;4.80;;
9438;SDS011;5176;42.622;25.386;2024-03-08T14:49:44;8.17;;;7.37;;
9438;SDS011;5176;42.622;25.386;2024-03-08T14:52:14;8.30;;;5.53;;
9438;SDS011;5176;42.622;25.386;2024-03-08T14:54:53;5.50;;;4.47;;
9438;SDS011;5176;42.622;25.386;2024-03-08T14:57:22;9.77;;;6.67;;
9438;SDS011;5176;42.622;25.386;2024-03-08T14:59:50;6.33;;;5.40;;
9438;SDS011;5176;42.622;25.386;2024-03-08T15:02:18;6.27;;;4.93;;
9438;SDS011;5176;42.622;25.386;2024-03-08T15:04:46;9.23;;;6.97;;
9438;SDS011;5176;42.622;25.386;2024-03-08T15:07:22;11.47;;;8.30;;
9438;SDS011;5176;42.622;25.386;2024-03-08T15:09:51;13.80;;;9.13;;